Time;durP1;ratioP1;P1;durP2;ratioP2;P2;SDS_P1;SDS_P2;PMS_P1;PMS_P2;Temp;Humidity;BMP_temperature;BMP_pressure;BME280_temperature;BME280_humidity;BME280_pressure;Samples;Min_cycle;Max_cycle;Signal;HPM_P1;HPM_P2
2023/10/07 00:01:02;;;;;;;23.52;5.68;;;17.10;80.70;;;;;;5036331;28;20053;-67
2023/10/07 00:03:05;;;;;;;20.73;5.63;;;17.20;80.90;;;;;;5017069;28;20053;-69
2023/10/07 00:05:35;;;;;;;19.55;5.53;;;17.20;80.80;;;;;;5025453;28;20080;-67
2023/10/07 00:08:12;;;;;;;16.20;5.40;;;17.20;80.90;;;;;;5009965;28;20061;-67
2023/10/07 00:10:38;;;;;;;24.45;5.95;;;17.20;81.00;;;;;;4992517;28;20459;-69
2023/10/07 00:13:09;;;;;;;24.40;5.80;;;17.20;81.00;;;;;;4990548;28;20052;-67
2023/10/07 00:15:44;;;;;;;20.42;5.78;;;17.20;81.00;;;;;;5030667;28;20041;-67
2023/10/07 00:18:12;;;;;;;13.80;5.30;;;17.20;81.00;;;;;;5030421;28;20051;-68
2023/10/07 00:20:44;;;;;;;19.30;5.60;;;17.20;81.00;;;;;;5030317;28;20057;-69
2023/10/07 00:23:12;;;;;;;23.15;5.57;;;17.20;81.00;;;;;;5020292;28;20050;-68
2023/10/07 00:25:38;;;;;;;22.30;5.60;;;17.20;81.10;;;;;;5030691;28;20049;-67
2023/10/07 00:31:01;;;;;;;23.15;5.78;;;17.20;81.20;;;;;;5000057;28;20516;-69
2023/10/07 00:33:28;;;;;;;21.80;5.13;;;17.20;81.70;;;;;;5029939;28;20050;-65
2023/10/07 00:35:55;;;;;;;19.60;5.10;;;17.20;81.90;;;;;;5027491;28;20050;-68
2023/10/07 00:38:24;;;;;;;19.30;5.10;;;17.20;82.10;;;;;;5034537;28;20053;-68
2023/10/07 00:40:56;;;;;;;26.63;5.53;;;17.10;82.30;;;;;;5029784;28;20052;-68
2023/10/07 00:43:27;;;;;;;21.05;5.75;;;17.10;82.30;;;;;;5034241;28;20099;-67
2023/10/07 00:45:59;;;;;;;20.95;5.47;;;17.10;82.30;;;;;;5030012;28;20056;-67
2023/10/07 00:48:38;;;;;;;27.98;6.38;;;17.10;82.30;;;;;;5030544;28;20439;-68
2023/10/07 00:51:11;;;;;;;18.25;5.57;;;17.10;82.40;;;;;;5030763;28;20496;-68
2023/10/07 00:53:45;;;;;;;22.27;6.05;;;17.00;82.70;;;;;;5029266;28;20041;-67
2023/10/07 00:56:14;;;;;;;24.50;6.38;;;17.00;83.20;;;;;;5029603;28;20038;-68
2023/10/07 00:58:41;;;;;;;20.92;6.40;;;16.90;84.10;;;;;;5029895;28;20077;-70
2023/10/07 01:01:12;;;;;;;19.40;6.35;;;16.90;85.00;;;;;;5021600;28;20052;-68
2023/10/07 01:03:47;;;;;;;25.27;6.72;;;16.70;84.90;;;;;;5025935;28;20048;-68
2023/10/07 01:06:26;;;;;;;25.67;6.95;;;16.70;85.30;;;;;;5029195;28;20095;-68
2023/10/07 01:09:07;;;;;;;25.50;6.80;;;16.60;85.50;;;;;;5030348;28;20088;-68
2023/10/07 01:11:37;;;;;;;28.33;6.88;;;16.60;85.80;;;;;;5028430;28;20110;-69
2023/10/07 01:14:05;;;;;;;21.13;6.55;;;16.60;85.90;;;;;;5009777;28;20046;-68
2023/10/07 01:16:40;;;;;;;28.83;6.57;;;16.60;86.00;;;;;;4994014;28;20551;-67
2023/10/07 01:21:51;;;;;;;23.50;6.32;;;16.60;86.00;;;;;;5011039;28;20088;-67
2023/10/07 01:24:24;;;;;;;25.38;6.53;;;16.60;85.80;;;;;;5028722;28;20089;-69
2023/10/07 01:26:50;;;;;;;23.08;5.70;;;16.60;85.90;;;;;;5028706;28;20844;-68
2023/10/07 01:29:16;;;;;;;28.23;5.97;;;16.60;85.70;;;;;;5029303;28;20400;-68
2023/10/07 01:32:00;;;;;;;21.88;6.40;;;16.60;85.60;;;;;;5029778;28;20041;-69
2023/10/07 01:34:35;;;;;;;27.80;6.00;;;16.70;85.60;;;;;;5012751;28;20045;-69
2023/10/07 01:37:02;;;;;;;21.55;5.63;;;16.70;85.50;;;;;;5014989;28;20056;-66
2023/10/07 01:39:31;;;;;;;23.40;5.47;;;16.70;85.20;;;;;;5022166;28;20493;-68
2023/10/07 01:42:03;;;;;;;19.88;5.85;;;16.70;85.20;;;;;;5028044;28;20045;-68
2023/10/07 01:44:31;;;;;;;20.27;5.53;;;16.70;85.00;;;;;;5029603;28;20068;-67
2023/10/07 01:46:57;;;;;;;20.30;5.53;;;16.80;84.80;;;;;;5028883;28;20060;-67
2023/10/07 01:49:22;;;;;;;19.67;5.78;;;16.80;84.70;;;;;;5016771;28;20033;-68
2023/10/07 01:51:51;;;;;;;20.55;5.20;;;16.80;84.60;;;;;;5028110;28;20056;-68
2023/10/07 01:54:19;;;;;;;19.05;5.00;;;16.80;84.40;;;;;;5010007;28;20085;-68
2023/10/07 01:56:47;;;;;;;19.48;4.80;;;16.90;84.30;;;;;;5021459;28;20060;-68
2023/10/07 02:01:43;;;;;;;20.63;5.07;;;16.90;84.00;;;;;;5022786;28;20064;-68
2023/10/07 02:04:18;;;;;;;21.42;4.97;;;17.00;83.70;;;;;;5029406;28;20045;-67
2023/10/07 02:06:54;;;;;;;19.65;5.18;;;17.00;83.70;;;;;;5015674;28;20050;-67
2023/10/07 02:09:27;;;;;;;20.77;4.78;;;17.00;83.60;;;;;;5020241;28;20053;-68
2023/10/07 02:12:07;;;;;;;20.25;4.43;;;17.00;83.60;;;;;;5011578;28;20092;-69
2023/10/07 02:14:34;;;;;;;17.77;5.00;;;17.00;83.40;;;;;;5009534;28;20072;-67
2023/10/07 02:17:00;;;;;;;17.88;4.32;;;17.00;83.30;;;;;;5012079;28;20053;-68
2023/10/07 02:19:31;;;;;;;19.35;4.65;;;17.10;83.20;;;;;;5029225;28;20041;-67
2023/10/07 02:22:03;;;;;;;;;;;17.10;83.10;;;;;;5010923;28;20266;-68
2023/10/07 02:24:32;;;;;;;;;;;17.10;83.10;;;;;;5028814;28;19921;-68
2023/10/07 02:27:04;;;;;;;17.65;4.70;;;17.10;83.00;;;;;;5022248;28;19928;-67
2023/10/07 02:29:30;;;;;;;23.92;5.00;;;17.10;83.00;;;;;;5026220;28;20045;-67
2023/10/07 02:32:07;;;;;;;16.63;4.53;;;17.10;82.90;;;;;;5032886;28;20050;-66
2023/10/07 02:34:34;;;;;;;20.52;5.07;;;17.20;82.80;;;;;;5020393;28;20052;-67
2023/10/07 02:37:11;;;;;;;21.83;4.65;;;17.20;82.70;;;;;;5032530;28;20506;-68
2023/10/07 02:39:46;;;;;;;16.67;4.65;;;17.20;82.80;;;;;;5014387;28;20480;-68
2023/10/07 02:42:22;;;;;;;17.67;5.15;;;17.20;82.70;;;;;;5014478;28;20457;-68
2023/10/07 02:47:47;;;;;;;20.65;5.68;;;17.20;82.70;;;;;;5019257;28;20057;-68
2023/10/07 02:50:13;;;;;;;19.88;5.38;;;17.20;82.80;;;;;;5032108;28;20056;-67
2023/10/07 02:52:39;;;;;;;19.08;4.97;;;17.20;82.80;;;;;;5024479;28;20121;-69
2023/10/07 02:57:41;;;;;;;18.42;5.18;;;17.20;82.90;;;;;;5031957;28;20091;-68
2023/10/07 03:00:29;;;;;;;23.95;5.05;;;17.20;82.90;;;;;;5032152;28;20057;-68
2023/10/07 03:03:10;;;;;;;26.25;5.47;;;17.20;82.90;;;;;;5021750;28;20459;-68
2023/10/07 03:05:45;;;;;;;21.40;4.88;;;17.20;82.90;;;;;;5012331;28;20392;-68
2023/10/07 03:08:19;;;;;;;18.90;5.25;;;17.10;83.00;;;;;;4994053;28;20046;-68
2023/10/07 03:11:03;;;;;;;17.17;4.85;;;17.20;82.90;;;;;;5012359;28;20463;-68
2023/10/07 03:13:37;;;;;;;23.50;5.20;;;17.10;82.90;;;;;;5014179;28;20050;-67
2023/10/07 03:16:59;;;;;;;22.35;4.85;;;17.10;83.00;;;;;;4995001;28;20112;-67
2023/10/07 03:24:15;;;;;;;17.75;4.88;;;17.20;83.00;;;;;;5023695;28;20049;-69
2023/10/07 03:26:45;;;;;;;23.77;5.75;;;17.20;83.00;;;;;;5031676;28;20064;-68
2023/10/07 03:29:29;;;;;;;16.58;5.18;;;17.20;83.00;;;;;;5025248;28;20053;-68
2023/10/07 03:31:55;;;;;;;18.77;5.38;;;17.20;82.90;;;;;;5035420;28;20113;-68
2023/10/07 03:34:20;;;;;;;22.30;5.45;;;17.20;83.00;;;;;;5031107;28;20053;-70
2023/10/07 03:37:14;;;;;;;17.08;4.63;;;17.20;83.00;;;;;;5031205;28;20045;-67
2023/10/07 03:42:16;;;;;;;16.67;4.63;;;17.20;82.90;;;;;;5030221;28;20080;-68
2023/10/07 03:44:41;;;;;;;19.65;4.90;;;17.20;82.90;;;;;;5031401;28;20041;-68
2023/10/07 03:47:10;;;;;;;18.17;4.93;;;17.20;82.90;;;;;;5027956;28;20129;-68
2023/10/07 03:49:40;;;;;;;22.00;5.18;;;17.20;82.90;;;;;;5027461;28;20412;-68
2023/10/07 03:52:12;;;;;;;20.33;4.60;;;17.20;83.00;;;;;;5024906;28;20041;-70
2023/10/07 03:54:42;;;;;;;16.55;4.82;;;17.20;82.90;;;;;;5031309;28;20156;-66
2023/10/07 03:57:10;;;;;;;22.55;5.60;;;17.20;82.90;;;;;;5031054;28;20053;-69
2023/10/07 03:59:39;;;;;;;22.15;5.45;;;17.20;83.00;;;;;;5023393;28;20057;-68
2023/10/07 04:04:58;;;;;;;22.27;5.10;;;17.20;83.00;;;;;;5031094;28;20060;-68
2023/10/07 04:07:25;;;;;;;22.02;5.68;;;17.10;83.10;;;;;;4999980;28;20053;-68
2023/10/07 04:09:51;;;;;;;19.52;4.90;;;17.10;83.10;;;;;;5030815;28;20057;-67
2023/10/07 04:12:17;;;;;;;23.20;5.55;;;17.10;83.20;;;;;;5013218;28;20111;-66
2023/10/07 04:14:43;;;;;;;25.90;5.13;;;17.00;83.20;;;;;;5017371;28;20053;-68
2023/10/07 04:17:12;;;;;;;18.60;4.72;;;17.10;83.20;;;;;;5030655;28;20046;-68
2023/10/07 04:19:40;;;;;;;21.35;5.18;;;17.00;83.20;;;;;;5015440;28;20408;-69
2023/10/07 04:22:08;;;;;;;23.10;5.43;;;17.00;83.20;;;;;;5017094;28;20090;-67
2023/10/07 04:24:35;;;;;;;19.67;5.35;;;17.00;83.20;;;;;;5007457;28;20048;-67
2023/10/07 04:27:05;;;;;;;17.92;5.25;;;17.10;83.20;;;;;;5031544;28;20052;-67
2023/10/07 04:29:32;;;;;;;26.00;5.65;;;17.00;83.30;;;;;;5013396;28;20420;-68
2023/10/07 04:32:05;;;;;;;16.77;5.38;;;17.00;83.30;;;;;;5026824;28;20072;-68
2023/10/07 04:34:35;;;;;;;18.20;5.30;;;17.10;83.20;;;;;;5034833;28;20053;-67
2023/10/07 04:42:33;;;;;;;21.48;5.30;;;17.00;83.30;;;;;;5001831;28;20057;-69
2023/10/07 04:45:21;;;;;;;26.40;5.85;;;17.00;83.20;;;;;;5021017;28;20151;-66
2023/10/07 04:47:49;;;;;;;19.63;5.53;;;17.00;83.30;;;;;;4991994;28;20095;-68
2023/10/07 04:50:16;;;;;;;22.63;5.60;;;17.00;83.30;;;;;;5010538;28;20410;-67
2023/10/07 04:52:50;;;;;;;23.35;5.43;;;17.00;83.30;;;;;;5010606;28;20065;-69
2023/10/07 04:55:19;;;;;;;28.48;5.50;;;17.00;83.30;;;;;;5014374;28;20053;-68
2023/10/07 05:03:00;;;;;;;23.40;5.60;;;17.00;83.30;;;;;;5029186;28;20049;-67
2023/10/07 05:05:31;;;;;;;21.58;5.10;;;17.00;83.30;;;;;;5026525;28;20421;-66
2023/10/07 05:08:08;;;;;;;24.65;5.75;;;17.00;83.30;;;;;;5023587;28;20128;-69
2023/10/07 05:10:38;;;;;;;23.40;5.88;;;17.00;83.30;;;;;;5030258;28;20058;-68
2023/10/07 05:13:06;;;;;;;24.13;5.20;;;17.00;83.20;;;;;;5010667;28;20049;-68
2023/10/07 05:15:34;;;;;;;21.38;5.40;;;17.00;83.30;;;;;;5030439;28;20064;-70
2023/10/07 05:18:01;;;;;;;16.90;5.00;;;17.00;83.30;;;;;;5026744;28;20049;-67
2023/10/07 05:20:28;;;;;;;21.70;5.53;;;17.00;83.30;;;;;;5009554;28;20061;-67
2023/10/07 05:22:55;;;;;;;22.90;5.63;;;17.00;83.30;;;;;;5023388;28;20404;-69
2023/10/07 05:25:22;;;;;;;23.92;5.80;;;17.00;83.30;;;;;;5012139;28;20480;-70
2023/10/07 05:27:50;;;;;;;25.50;5.53;;;17.00;83.30;;;;;;5027642;28;20242;-69
2023/10/07 05:30:18;;;;;;;26.70;5.07;;;17.00;83.20;;;;;;5024812;28;20046;-68
2023/10/07 05:32:45;;;;;;;19.98;5.47;;;17.00;83.30;;;;;;5007503;28;20045;-70
2023/10/07 05:35:14;;;;;;;25.88;5.47;;;17.00;83.20;;;;;;5029500;28;20061;-70
2023/10/07 05:37:41;;;;;;;20.20;4.85;;;17.00;83.20;;;;;;5016376;28;20053;-70
2023/10/07 05:40:07;;;;;;;20.75;5.18;;;17.00;83.20;;;;;;5019361;28;20050;-68
2023/10/07 05:42:33;;;;;;;18.45;5.20;;;17.00;83.20;;;;;;5025143;28;20088;-67
2023/10/07 05:44:59;;;;;;;23.67;4.63;;;17.00;83.20;;;;;;5009388;28;20567;-67
2023/10/07 05:47:25;;;;;;;21.20;5.18;;;17.00;83.20;;;;;;5024376;28;20516;-67
2023/10/07 05:49:55;;;;;;;23.60;5.32;;;17.00;83.20;;;;;;5026581;28;20045;-68
2023/10/07 05:52:21;;;;;;;26.20;5.22;;;17.00;83.40;;;;;;5027029;28;20111;-65
2023/10/07 05:54:46;;;;;;;21.25;5.20;;;17.00;83.60;;;;;;5026962;28;20488;-68
2023/10/07 05:57:13;;;;;;;24.58;5.25;;;16.90;83.80;;;;;;5026421;28;20052;-68
2023/10/07 05:59:42;;;;;;;25.85;5.32;;;16.90;83.90;;;;;;5032431;28;20103;-69
2023/10/07 06:02:12;;;;;;;19.23;4.43;;;16.90;84.00;;;;;;5030623;28;20053;-69
2023/10/07 06:04:39;;;;;;;27.23;5.07;;;16.80;84.20;;;;;;5030622;28;20049;-68
2023/10/07 06:07:07;;;;;;;18.45;5.00;;;16.80;84.40;;;;;;5027329;28;20853;-68
2023/10/07 06:09:36;;;;;;;17.50;4.85;;;16.70;84.40;;;;;;5030275;28;20041;-67
2023/10/07 06:12:04;;;;;;;19.92;5.63;;;16.70;84.70;;;;;;5026855;28;20050;-67
2023/10/07 06:14:31;;;;;;;20.23;5.45;;;16.60;84.70;;;;;;5030136;28;20559;-68
2023/10/07 06:16:57;;;;;;;23.73;5.53;;;16.60;84.90;;;;;;5030759;28;20052;-68
2023/10/07 06:19:23;;;;;;;19.08;5.32;;;16.60;85.10;;;;;;5031446;28;20033;-67
2023/10/07 06:21:51;;;;;;;21.75;5.28;;;16.60;85.00;;;;;;5025891;28;20045;-69
2023/10/07 06:24:21;;;;;;;19.33;5.63;;;16.60;85.10;;;;;;5024896;28;20075;-67
2023/10/07 06:26:53;;;;;;;25.45;5.78;;;16.60;85.10;;;;;;5020014;28;20155;-68
2023/10/07 06:29:19;;;;;;;26.08;5.57;;;16.50;85.00;;;;;;5029785;28;20048;-68
2023/10/07 06:31:55;;;;;;;20.00;5.20;;;16.60;85.10;;;;;;5012411;28;20057;-69
2023/10/07 06:34:32;;;;;;;20.38;5.25;;;16.50;85.10;;;;;;5006414;28;20419;-65
2023/10/07 06:36:59;;;;;;;22.13;5.68;;;16.60;85.20;;;;;;5025281;28;20115;-67
2023/10/07 06:39:27;;;;;;;18.30;5.03;;;16.50;85.20;;;;;;5029169;28;20064;-68
2023/10/07 06:41:55;;;;;;;26.55;5.78;;;16.60;85.20;;;;;;5031869;28;20041;-67
2023/10/07 06:44:23;;;;;;;17.00;5.15;;;16.50;85.20;;;;;;5028168;28;20053;-67
2023/10/07 06:46:55;;;;;;;21.77;5.28;;;16.50;85.30;;;;;;5009841;28;20072;-67
2023/10/07 06:49:22;;;;;;;17.17;5.13;;;16.50;85.30;;;;;;5022688;28;20071;-68
2023/10/07 06:51:54;;;;;;;18.35;5.75;;;16.50;85.30;;;;;;5028150;28;20468;-67
2023/10/07 06:54:24;;;;;;;19.58;5.20;;;16.50;85.20;;;;;;5031047;28;20045;-68
2023/10/07 06:56:54;;;;;;;22.70;5.32;;;16.50;85.30;;;;;;5031056;28;21764;-68
2023/10/07 06:59:27;;;;;;;15.98;5.03;;;16.50;85.30;;;;;;5024881;28;20057;-68
2023/10/07 07:01:54;;;;;;;23.67;5.47;;;16.50;85.30;;;;;;5028035;28;20068;-67
2023/10/07 07:04:22;;;;;;;20.60;5.43;;;16.50;85.20;;;;;;5028608;28;20053;-67
2023/10/07 07:06:58;;;;;;;16.17;4.93;;;16.60;85.20;;;;;;5030770;28;20052;-68
2023/10/07 07:12:12;;;;;;;15.02;5.10;;;16.60;85.00;;;;;;5022864;28;20049;-66
2023/10/07 07:14:42;;;;;;;19.80;4.97;;;16.60;84.80;;;;;;5028603;28;20114;-66
2023/10/07 07:22:43;;;;;;;17.23;4.90;;;16.70;84.60;;;;;;5033483;28;20057;-68
2023/10/07 07:25:17;;;;;;;17.23;4.65;;;16.70;84.50;;;;;;5020589;28;20045;-66
2023/10/07 07:27:48;;;;;;;13.52;4.38;;;16.70;84.40;;;;;;5036658;28;20060;-69
2023/10/07 07:33:13;;;;;;;21.08;4.55;;;16.80;84.10;;;;;;5007260;28;20045;-68
2023/10/07 07:35:40;;;;;;;18.70;4.55;;;16.80;83.90;;;;;;5007361;28;20404;-69
2023/10/07 07:41:08;;;;;;;15.35;4.47;;;16.90;83.60;;;;;;5031582;28;20498;-69
2023/10/07 07:43:37;;;;;;;16.83;4.35;;;16.90;83.60;;;;;;5031377;28;20049;-69
2023/10/07 07:47:10;;;;;;;16.58;4.35;;;17.00;83.40;;;;;;5030684;28;20400;-68
2023/10/07 07:49:06;;;;;;;16.65;4.55;;;17.00;83.20;;;;;;5005823;28;20053;-67
2023/10/07 07:51:43;;;;;;;13.73;4.63;;;17.00;83.00;;;;;;5011681;28;20060;-64
2023/10/07 07:54:09;;;;;;;16.95;4.32;;;17.00;82.80;;;;;;5014839;28;20504;-68
2023/10/07 07:56:36;;;;;;;17.10;4.38;;;17.10;82.90;;;;;;5010332;28;20130;-69
2023/10/07 07:59:14;;;;;;;14.45;4.60;;;17.20;82.90;;;;;;5031040;28;20065;-67
2023/10/07 08:01:53;;;;;;;16.10;4.20;;;17.20;82.60;;;;;;5029344;28;20049;-69
2023/10/07 08:07:17;;;;;;;20.17;4.60;;;17.20;82.20;;;;;;5028280;28;20480;-69
2023/10/07 08:09:44;;;;;;;20.48;5.15;;;17.20;81.50;;;;;;5037263;28;20055;-70
2023/10/07 08:12:10;;;;;;;20.65;5.00;;;17.20;81.80;;;;;;5036029;28;20120;-67
2023/10/07 08:14:37;;;;;;;17.45;4.97;;;17.30;81.70;;;;;;5026609;28;20731;-68
2023/10/07 08:17:09;;;;;;;16.30;4.60;;;17.30;81.80;;;;;;5031481;28;20112;-69
2023/10/07 08:19:38;;;;;;;15.05;4.50;;;17.30;81.70;;;;;;5028659;28;20046;-64
2023/10/07 08:22:12;;;;;;;14.48;5.07;;;17.30;81.50;;;;;;5020936;28;20042;-67
2023/10/07 08:24:39;;;;;;;18.30;4.53;;;17.40;81.40;;;;;;5032726;28;20053;-67
2023/10/07 08:27:43;;;;;;;21.75;5.03;;;17.40;81.30;;;;;;5030773;28;20111;-70
2023/10/07 08:29:54;;;;;;;22.48;4.38;;;17.40;80.70;;;;;;5028920;28;20780;-68
2023/10/07 08:32:35;;;;;;;19.30;4.82;;;17.40;80.10;;;;;;5033530;28;20052;-67
2023/10/07 08:35:14;;;;;;;15.65;4.82;;;17.40;80.50;;;;;;5026425;28;20081;-68
2023/10/07 08:37:49;;;;;;;16.17;4.55;;;17.40;80.10;;;;;;5031324;28;20049;-69
2023/10/07 08:40:26;;;;;;;22.13;5.07;;;17.40;80.40;;;;;;5029963;28;20051;-68
2023/10/07 08:42:58;;;;;;;17.27;4.82;;;17.40;80.40;;;;;;5010418;28;20614;-67
2023/10/07 08:45:28;;;;;;;18.42;4.68;;;17.50;80.40;;;;;;5040117;28;20091;-70
2023/10/07 08:48:08;;;;;;;23.38;5.70;;;17.50;79.90;;;;;;5031958;28;20088;-66
2023/10/07 08:50:52;;;;;;;19.27;5.43;;;17.50;80.20;;;;;;5048668;28;20092;-67
2023/10/07 08:53:23;;;;;;;24.23;5.38;;;17.50;80.20;;;;;;5036332;28;20789;-69
2023/10/07 08:55:51;;;;;;;14.45;5.35;;;17.50;79.80;;;;;;5020801;28;20432;-69
2023/10/07 08:58:20;;;;;;;23.02;5.22;;;17.50;79.80;;;;;;5037322;28;20435;-69
2023/10/07 09:00:50;;;;;;;24.42;5.53;;;17.50;80.10;;;;;;5026753;28;20151;-66
2023/10/07 09:03:19;;;;;;;20.48;5.18;;;17.50;79.80;;;;;;5017745;28;20065;-69
2023/10/07 09:05:48;;;;;;;19.92;5.90;;;17.50;79.90;;;;;;5028172;28;20158;-68
2023/10/07 09:08:15;;;;;;;21.95;5.57;;;17.50;79.70;;;;;;5036379;28;20045;-68
2023/10/07 09:10:47;;;;;;;19.95;5.68;;;17.50;80.00;;;;;;5020237;28;20183;-68
2023/10/07 09:13:26;;;;;;;20.70;5.43;;;17.50;80.00;;;;;;5030036;28;20085;-69
2023/10/07 09:15:53;;;;;;;19.73;5.45;;;17.50;79.70;;;;;;5027139;28;20120;-67
2023/10/07 09:18:28;;;;;;;24.73;5.75;;;17.50;79.60;;;;;;5032682;28;20548;-65
2023/10/07 09:20:56;;;;;;;22.83;5.57;;;17.50;79.50;;;;;;5035943;28;20098;-67
2023/10/07 09:23:24;;;;;;;22.60;5.05;;;17.60;79.50;;;;;;5029593;28;20111;-67
2023/10/07 09:25:51;;;;;;;25.27;6.00;;;17.60;79.50;;;;;;5038109;28;20131;-67
2023/10/07 09:28:21;;;;;;;17.00;5.78;;;17.60;78.80;;;;;;5028162;28;20051;-68
2023/10/07 09:30:48;;;;;;;19.13;5.45;;;17.60;79.10;;;;;;5031841;28;20049;-69
2023/10/07 09:33:18;;;;;;;22.48;6.30;;;17.60;79.40;;;;;;5003526;28;20056;-68
2023/10/07 09:35:47;;;;;;;25.17;5.88;;;17.60;78.90;;;;;;5029695;28;20055;-71
2023/10/07 09:39:13;;;;;;;19.30;5.68;;;17.60;79.10;;;;;;5033883;28;20128;-69
2023/10/07 09:41:11;;;;;;;21.05;5.95;;;17.60;79.00;;;;;;5022942;28;20064;-67
2023/10/07 09:43:42;;;;;;;18.73;5.55;;;17.60;78.90;;;;;;5038614;28;20048;-69
2023/10/07 09:46:08;;;;;;;20.90;5.72;;;17.60;78.90;;;;;;5016269;28;20046;-68
2023/10/07 09:48:41;;;;;;;18.90;6.32;;;17.50;79.00;;;;;;5032422;28;20037;-68
2023/10/07 09:51:14;;;;;;;22.63;6.15;;;17.50;79.00;;;;;;5037149;28;20050;-68
2023/10/07 09:53:52;;;;;;;20.33;6.28;;;17.60;79.30;;;;;;5038960;28;20077;-68
2023/10/07 09:56:44;;;;;;;25.90;6.82;;;17.60;79.10;;;;;;5040045;28;20044;-70
2023/10/07 09:59:48;;;;;;;21.77;6.45;;;17.60;78.70;;;;;;5029793;28;20050;-68
2023/10/07 10:02:44;;;;;;;20.80;5.50;;;17.60;78.90;;;;;;5008833;28;20057;-69
2023/10/07 10:05:31;;;;;;;20.23;5.93;;;17.60;78.30;;;;;;5040321;28;20403;-70
2023/10/07 10:08:35;;;;;;;25.83;5.90;;;17.60;77.40;;;;;;5021425;28;20614;-67
2023/10/07 10:11:09;;;;;;;21.65;6.25;;;17.60;77.50;;;;;;5018878;28;20041;-68
2023/10/07 10:16:28;;;;;;;24.55;6.50;;;17.70;77.20;;;;;;5037727;28;20065;-68
2023/10/07 10:19:16;;;;;;;22.83;5.65;;;17.80;76.90;;;;;;5038516;28;20050;-68
2023/10/07 10:21:43;;;;;;;19.95;5.50;;;17.80;76.80;;;;;;5014829;28;20052;-69
2023/10/07 10:24:14;;;;;;;21.98;5.53;;;17.80;76.70;;;;;;5039947;28;20041;-68
2023/10/07 10:26:40;;;;;;;18.85;5.53;;;17.80;76.20;;;;;;5021487;28;20046;-68
2023/10/07 10:29:15;;;;;;;18.73;5.95;;;17.80;76.50;;;;;;5015707;28;20044;-67
2023/10/07 10:31:52;;;;;;;16.67;5.78;;;17.80;76.50;;;;;;4999535;28;20492;-69
2023/10/07 10:34:20;;;;;;;14.65;5.47;;;17.80;76.50;;;;;;5017014;28;20053;-70
2023/10/07 10:36:49;;;;;;;17.25;5.57;;;17.80;76.10;;;;;;5012389;28;20515;-66
2023/10/07 10:39:31;;;;;;;21.40;5.60;;;17.80;76.70;;;;;;5026525;28;20038;-69
2023/10/07 10:42:09;;;;;;;19.85;5.35;;;17.80;76.60;;;;;;5007100;28;20120;-67
2023/10/07 10:44:46;;;;;;;24.77;5.82;;;17.80;76.20;;;;;;5009081;28;20051;-68
2023/10/07 10:47:15;;;;;;;18.10;5.65;;;17.80;76.10;;;;;;4997116;28;20041;-68
2023/10/07 10:49:43;;;;;;;23.05;5.95;;;17.80;76.00;;;;;;5022339;28;20152;-67
2023/10/07 10:52:10;;;;;;;20.15;5.28;;;17.80;76.40;;;;;;5031546;28;20563;-66
2023/10/07 10:54:36;;;;;;;22.75;5.55;;;17.80;76.20;;;;;;5019883;28;20412;-68
2023/10/07 10:57:05;;;;;;;21.02;6.03;;;17.80;76.50;;;;;;5028891;28;20566;-67
2023/10/07 10:59:47;;;;;;;21.48;5.72;;;17.80;76.20;;;;;;5029442;28;20073;-65
2023/10/07 11:02:17;;;;;;;22.13;5.13;;;17.80;75.40;;;;;;5023670;28;20052;-69
2023/10/07 11:04:54;;;;;;;17.85;5.90;;;17.80;76.00;;;;;;5026538;28;20497;-66
2023/10/07 11:07:21;;;;;;;17.10;5.47;;;17.80;75.70;;;;;;5013548;28;20480;-68
2023/10/07 11:09:48;;;;;;;17.85;6.07;;;17.80;75.80;;;;;;5015612;28;20050;-67
2023/10/07 11:12:18;;;;;;;19.65;5.32;;;17.80;75.70;;;;;;5023824;28;20544;-67
2023/10/07 11:14:47;;;;;;;19.30;5.75;;;17.80;76.10;;;;;;5027408;28;20584;-68
2023/10/07 11:17:15;;;;;;;14.70;5.45;;;17.80;76.10;;;;;;5013453;28;20563;-68
2023/10/07 11:19:42;;;;;;;13.63;5.60;;;17.80;75.80;;;;;;5031301;28;20530;-69
2023/10/07 11:22:19;;;;;;;17.52;5.75;;;17.80;76.00;;;;;;5016482;28;20052;-70
2023/10/07 11:24:48;;;;;;;18.00;5.22;;;17.80;76.00;;;;;;5029951;28;20131;-68
2023/10/07 11:27:14;;;;;;;16.15;5.53;;;17.80;76.10;;;;;;5029084;28;20042;-69
2023/10/07 11:29:40;;;;;;;17.42;5.65;;;17.80;75.80;;;;;;5030697;28;20048;-68
2023/10/07 11:32:07;;;;;;;19.20;6.05;;;17.80;75.00;;;;;;5020313;28;20125;-67
2023/10/07 11:34:36;;;;;;;19.85;5.97;;;17.70;75.50;;;;;;5030591;28;20049;-67
2023/10/07 11:37:19;;;;;;;21.70;5.72;;;17.70;75.70;;;;;;5028572;28;20053;-67
2023/10/07 11:39:46;;;;;;;15.52;5.82;;;17.60;75.50;;;;;;5038827;28;20466;-67
2023/10/07 11:42:14;;;;;;;23.52;5.78;;;17.60;76.00;;;;;;5029206;28;20373;-66
2023/10/07 11:44:41;;;;;;;22.50;5.75;;;17.60;76.20;;;;;;5028921;28;20099;-68
2023/10/07 11:47:11;;;;;;;25.02;6.20;;;17.60;75.80;;;;;;5028704;28;20434;-68
2023/10/07 11:49:37;;;;;;;19.20;5.57;;;17.70;75.40;;;;;;5025218;28;20183;-66
2023/10/07 11:52:04;;;;;;;21.40;5.57;;;17.80;75.90;;;;;;5033819;28;20590;-67
2023/10/07 11:54:34;;;;;;;21.83;5.40;;;17.80;75.70;;;;;;5007334;28;20056;-68
2023/10/07 11:57:05;;;;;;;22.38;6.18;;;17.80;75.70;;;;;;5039996;28;20510;-67
2023/10/07 11:59:34;;;;;;;16.63;5.85;;;17.90;75.70;;;;;;5012589;28;20058;-67
2023/10/07 12:02:00;;;;;;;22.52;5.85;;;18.00;75.50;;;;;;5025695;28;20513;-67
2023/10/07 12:04:26;;;;;;;20.90;5.75;;;17.90;75.50;;;;;;5018354;28;20105;-68
2023/10/07 12:06:53;;;;;;;15.82;5.15;;;17.80;75.50;;;;;;5028657;28;20083;-67
2023/10/07 12:09:21;;;;;;;20.63;6.18;;;17.80;75.50;;;;;;5012204;28;20050;-68
2023/10/07 12:11:49;;;;;;;21.73;6.43;;;17.80;75.70;;;;;;5025055;28;20065;-68
2023/10/07 12:14:18;;;;;;;22.75;6.45;;;17.80;75.70;;;;;;5020025;28;20045;-67
2023/10/07 12:16:44;;;;;;;22.77;6.15;;;17.80;75.90;;;;;;5038676;28;20161;-67
2023/10/07 12:19:17;;;;;;;23.33;6.22;;;17.80;75.90;;;;;;5030698;28;20075;-67
2023/10/07 12:21:47;;;;;;;19.98;6.05;;;17.70;76.00;;;;;;5017048;28;20099;-67
2023/10/07 12:24:16;;;;;;;21.65;6.10;;;17.70;76.00;;;;;;5024017;28;20132;-68
2023/10/07 12:26:46;;;;;;;16.23;5.60;;;17.70;76.00;;;;;;5022725;28;20065;-67
2023/10/07 12:29:12;;;;;;;19.33;5.77;;;17.60;76.10;;;;;;5003508;28;20522;-67
2023/10/07 12:31:39;;;;;;;16.70;5.57;;;17.70;76.30;;;;;;5025147;28;20670;-67
2023/10/07 12:34:08;;;;;;;21.10;5.60;;;17.70;76.20;;;;;;5021354;28;20514;-68
2023/10/07 12:36:33;;;;;;;21.27;6.00;;;17.80;76.20;;;;;;5023585;28;20054;-68
2023/10/07 12:38:59;;;;;;;16.90;5.45;;;17.80;76.00;;;;;;5022941;28;20053;-68
2023/10/07 12:41:25;;;;;;;17.67;5.43;;;17.80;75.90;;;;;;5027253;28;20049;-67
2023/10/07 12:43:51;;;;;;;24.83;6.32;;;17.80;76.20;;;;;;5027094;28;20103;-67
2023/10/07 12:46:17;;;;;;;21.58;5.95;;;17.80;76.30;;;;;;5027222;28;20080;-67
2023/10/07 12:48:46;;;;;;;24.70;6.05;;;17.80;76.50;;;;;;5008873;28;20049;-66
2023/10/07 12:51:12;;;;;;;20.17;5.57;;;17.80;76.50;;;;;;5024778;28;20069;-67
2023/10/07 12:53:38;;;;;;;19.27;5.65;;;17.80;76.40;;;;;;5032128;28;20084;-67
2023/10/07 12:56:19;;;;;;;22.42;5.75;;;17.70;76.50;;;;;;5025457;28;20041;-69
2023/10/07 12:58:48;;;;;;;23.30;6.20;;;17.60;76.40;;;;;;5026199;28;20057;-66
2023/10/07 13:01:14;;;;;;;18.23;6.00;;;17.60;76.60;;;;;;5027148;28;20136;-67
2023/10/07 13:03:43;;;;;;;19.42;5.88;;;17.50;76.80;;;;;;5009437;28;20472;-68
2023/10/07 13:06:19;;;;;;;20.95;6.05;;;17.50;76.80;;;;;;5027017;28;20056;-66
2023/10/07 13:08:45;;;;;;;16.38;5.72;;;17.50;76.80;;;;;;5016849;28;20592;-67
2023/10/07 13:11:12;;;;;;;16.65;5.82;;;17.50;76.80;;;;;;5019259;28;20164;-67
2023/10/07 13:13:39;;;;;;;20.58;6.00;;;17.50;77.00;;;;;;5021469;28;20124;-67
2023/10/07 13:16:11;;;;;;;23.25;6.35;;;17.50;77.10;;;;;;5027211;28;20052;-65
2023/10/07 13:18:49;;;;;;;21.92;5.78;;;17.40;77.30;;;;;;5009737;28;20059;-69
2023/10/07 13:21:18;;;;;;;20.38;6.32;;;17.40;77.60;;;;;;5030334;28;20500;-67
2023/10/07 13:23:47;;;;;;;18.20;5.85;;;17.40;77.60;;;;;;5030544;28;20053;-68
2023/10/07 13:26:14;;;;;;;16.95;5.93;;;17.40;77.40;;;;;;5023210;28;20416;-67
2023/10/07 13:28:41;;;;;;;23.23;5.75;;;17.40;77.50;;;;;;5030547;28;20155;-67
2023/10/07 13:31:09;;;;;;;20.60;6.05;;;17.30;77.50;;;;;;5030428;28;20496;-65
2023/10/07 13:33:36;;;;;;;21.98;6.10;;;17.30;77.70;;;;;;5029486;28;20128;-67
2023/10/07 13:36:08;;;;;;;14.85;5.70;;;17.30;77.80;;;;;;5019964;28;20608;-67
2023/10/07 13:38:35;;;;;;;23.65;6.05;;;17.20;77.50;;;;;;5013136;28;20045;-68
2023/10/07 13:41:03;;;;;;;19.85;6.03;;;17.20;77.60;;;;;;5020669;28;20128;-66
2023/10/07 13:43:29;;;;;;;19.95;6.35;;;17.20;77.80;;;;;;5008947;28;20049;-66
2023/10/07 13:46:01;;;;;;;17.38;5.88;;;17.20;77.90;;;;;;5023343;28;20512;-66
2023/10/07 13:48:27;;;;;;;19.08;6.35;;;17.20;78.00;;;;;;5018302;28;20052;-68
2023/10/07 13:51:00;;;;;;;20.35;6.40;;;17.20;78.20;;;;;;5017980;28;20192;-66